createdAt,value
2023-03-11T00:01:43.662Z,99959.84
2023-03-11T00:04:11.778Z,99969.41
2023-03-11T00:06:39.495Z,99963.34
2023-03-11T00:09:08.532Z,99966.00
2023-03-11T00:11:36.193Z,99969.47
2023-03-11T00:14:03.864Z,99971.25
2023-03-11T00:16:31.551Z,99973.88
2023-03-11T00:19:00.251Z,99983.44
2023-03-11T00:21:27.973Z,99993.91
2023-03-11T00:23:55.657Z,100012.25
2023-03-11T00:26:24.692Z,100014.88
2023-03-11T00:28:52.403Z,100021.81
2023-03-11T00:31:20.107Z,100023.63
2023-03-11T00:33:47.867Z,100020.16
2023-03-11T00:36:21.463Z,100026.25
2023-03-11T00:38:49.215Z,100027.13
2023-03-11T00:41:16.918Z,100023.72
2023-03-11T00:43:45.963Z,100031.59
2023-03-11T00:46:13.659Z,100032.47
2023-03-11T00:48:41.330Z,100035.91
2023-03-11T00:51:09.241Z,100040.25
2023-03-11T00:53:36.959Z,100047.25
2023-03-11T00:56:08.516Z,100054.25
2023-03-11T00:58:36.228Z,100053.41
2023-03-11T01:01:09.726Z,100057.78
2023-03-11T01:03:37.511Z,100059.53
2023-03-11T01:06:05.912Z,100062.09
2023-03-11T01:08:33.599Z,100065.56
2023-03-11T01:11:01.332Z,100060.31
2023-03-11T01:13:29.423Z,100059.44
2023-03-11T01:15:57.116Z,100056.03
2023-03-11T01:18:26.177Z,100068.22
2023-03-11T01:20:53.897Z,100068.22
2023-03-11T01:23:21.606Z,100074.28
2023-03-11T01:25:49.296Z,100073.50
2023-03-11T01:28:16.967Z,100095.25
2023-03-11T01:30:44.768Z,100096.13
2023-03-11T01:33:15.517Z,100092.63
2023-03-11T01:35:44.593Z,100090.00
2023-03-11T01:38:12.356Z,100098.81
2023-03-11T01:40:40.910Z,100100.59
2023-03-11T01:43:29.056Z,100111.88
2023-03-11T01:46:13.342Z,100111.03
2023-03-11T01:48:42.231Z,100119.75
2023-03-11T01:51:09.915Z,100125.84
2023-03-11T01:53:37.622Z,100124.97
2023-03-11T01:56:05.685Z,100131.94
2023-03-11T01:58:35.185Z,100143.28
2023-03-11T02:01:03.140Z,100145.09
2023-03-11T02:03:33.098Z,100148.56
2023-03-11T02:06:02.250Z,100158.13
2023-03-11T02:08:33.975Z,100157.25
2023-03-11T02:11:01.945Z,100162.47
2023-03-11T02:13:29.783Z,100169.47
2023-03-11T02:15:57.509Z,100166.88
2023-03-11T02:18:25.227Z,100172.09
2023-03-11T02:20:57.989Z,100169.50
2023-03-11T02:23:26.991Z,100179.06
2023-03-11T02:25:57.187Z,100179.06
2023-03-11T02:28:26.271Z,100179.06
2023-03-11T02:30:54.012Z,100193.09
2023-03-11T02:33:21.687Z,100185.28
2023-03-11T02:35:49.427Z,100190.50
2023-03-11T02:38:17.120Z,100192.28
2023-03-11T02:40:51.652Z,100196.63
2023-03-11T02:43:20.833Z,100196.63
2023-03-11T02:45:49.886Z,100199.25
2023-03-11T02:48:17.585Z,100203.56
2023-03-11T02:50:45.421Z,100200.94
2023-03-11T02:53:13.097Z,100208.81
2023-03-11T02:55:40.880Z,100208.81
2023-03-11T02:58:08.639Z,100208.81
2023-03-11T03:00:36.400Z,100210.50
2023-03-11T03:03:05.512Z,100231.47
2023-03-11T03:05:33.571Z,100233.22
2023-03-11T03:08:02.696Z,100232.34
2023-03-11T03:10:30.579Z,100242.81
2023-03-11T03:12:58.250Z,100242.81
2023-03-11T03:15:26.350Z,100248.97
2023-03-11T03:17:54.020Z,100241.16
2023-03-11T03:20:23.568Z,100251.63
2023-03-11T03:22:51.846Z,100255.97
2023-03-11T03:25:19.560Z,100264.72
2023-03-11T03:27:47.274Z,100270.88
2023-03-11T03:30:15.291Z,100269.97
2023-03-11T03:32:42.999Z,100272.59
2023-03-11T03:35:11.029Z,100269.09
2023-03-11T03:37:40.056Z,100279.56
2023-03-11T03:40:09.762Z,100283.97
2023-03-11T03:42:37.566Z,100282.25
2023-03-11T03:45:06.729Z,100284.03
2023-03-11T03:47:34.388Z,100290.94
2023-03-11T03:50:03.223Z,100291.84
2023-03-11T03:52:30.951Z,100290.97
2023-03-11T03:54:59.967Z,100299.69
2023-03-11T03:57:27.638Z,100303.16
2023-03-11T03:59:55.326Z,100306.69
2023-03-11T04:02:23.031Z,100310.19
2023-03-11T04:04:50.731Z,100317.16
2023-03-11T04:07:18.404Z,100315.41
2023-03-11T04:09:46.071Z,100312.78
2023-03-11T04:12:17.397Z,100315.41
2023-03-11T04:14:45.176Z,100325.91
2023-03-11T04:17:13.134Z,100323.31
2023-03-11T04:19:40.881Z,100324.16
2023-03-11T04:22:08.563Z,100337.25
2023-03-11T04:24:36.230Z,100342.50
2023-03-11T04:27:03.977Z,100345.06
2023-03-11T04:29:33.000Z,100349.47
2023-03-11T04:32:00.668Z,100351.19
2023-03-11T04:34:28.344Z,100361.69
2023-03-11T04:36:56.030Z,100365.22
2023-03-11T04:39:23.685Z,100363.56
2023-03-11T04:41:51.350Z,100368.75
2023-03-11T04:44:19.017Z,100372.25
2023-03-11T04:46:48.050Z,100379.22
2023-03-11T04:49:15.725Z,100383.59
2023-03-11T04:51:43.421Z,100391.47
2023-03-11T04:54:11.078Z,100401.94
2023-03-11T04:56:38.803Z,100408.09
2023-03-11T04:59:06.452Z,100408.09
2023-03-11T05:01:34.168Z,100406.38
2023-03-11T05:04:03.482Z,100411.63
2023-03-11T05:06:31.392Z,100415.13
2023-03-11T05:08:59.093Z,100416.03
2023-03-11T05:11:26.778Z,100420.38
2023-03-11T05:13:54.458Z,100427.41
2023-03-11T05:16:22.177Z,100423.88
2023-03-11T05:18:49.874Z,100430.88
2023-03-11T05:21:18.906Z,100429.03
2023-03-11T05:23:46.643Z,100439.50
2023-03-11T05:26:14.358Z,100439.38
2023-03-11T05:28:42.029Z,100443.75
2023-03-11T05:31:10.347Z,100442.81
2023-03-11T05:33:38.044Z,100448.03
2023-03-11T05:36:07.389Z,100448.88
2023-03-11T05:38:36.446Z,100447.09
2023-03-11T05:41:04.228Z,100448.81
2023-03-11T05:43:31.904Z,100449.69
2023-03-11T05:45:59.574Z,100456.63
2023-03-11T05:48:27.289Z,100460.06
2023-03-11T05:50:54.963Z,100465.28
2023-03-11T05:53:22.640Z,100464.44
2023-03-11T05:55:58.350Z,100467.88
2023-03-11T05:58:26.081Z,100465.22
2023-03-11T06:00:53.766Z,100468.75
2023-03-11T06:03:21.611Z,100467.88
2023-03-11T06:05:50.148Z,100470.50
2023-03-11T06:08:18.050Z,100475.78
2023-03-11T06:10:47.870Z,100477.56
2023-03-11T06:13:17.923Z,100483.63
2023-03-11T06:15:45.842Z,100489.72
2023-03-11T06:18:13.527Z,100486.19
2023-03-11T06:20:41.240Z,100495.78
2023-03-11T06:23:08.899Z,100504.53
2023-03-11T06:25:36.586Z,100506.25
2023-03-11T06:28:04.264Z,100514.09
2023-03-11T06:30:33.380Z,100510.63
2023-03-11T06:33:01.054Z,100516.72
2023-03-11T06:35:28.731Z,100518.50
2023-03-11T06:37:56.431Z,100519.34
2023-03-11T06:40:24.331Z,100520.22
2023-03-11T06:42:52.348Z,100528.91
2023-03-11T06:45:20.816Z,100529.81
2023-03-11T06:47:49.896Z,100528.97
2023-03-11T06:50:17.837Z,100540.31
2023-03-11T06:52:45.625Z,100544.69
2023-03-11T06:55:13.356Z,100546.41
2023-03-11T06:57:41.033Z,100551.63
2023-03-11T07:00:12.203Z,100555.09
2023-03-11T07:02:39.905Z,100558.56
2023-03-11T07:05:09.839Z,100563.81
2023-03-11T07:07:37.507Z,100567.28
2023-03-11T07:10:06.444Z,100576.88
2023-03-11T07:12:34.141Z,100577.72
2023-03-11T07:15:01.895Z,100571.66
2023-03-11T07:17:29.573Z,100586.47
2023-03-11T07:19:57.244Z,100594.28
2023-03-11T07:22:26.311Z,100599.56
2023-03-11T07:24:54.152Z,100600.38
2023-03-11T07:27:22.382Z,100603.00
2023-03-11T07:29:50.079Z,100606.44
2023-03-11T07:32:17.983Z,100607.28
2023-03-11T07:34:45.730Z,100606.44
2023-03-11T07:37:14.202Z,100617.75
2023-03-11T07:39:44.469Z,100627.31
2023-03-11T07:42:12.143Z,100636.94
2023-03-11T07:44:39.834Z,100636.94
2023-03-11T07:47:07.690Z,100643.88
2023-03-11T07:49:35.387Z,100643.84
2023-03-11T07:52:03.059Z,100649.94
2023-03-11T07:54:30.740Z,100655.16
2023-03-11T07:57:00.022Z,100662.06
2023-03-11T07:59:27.739Z,100658.56
2023-03-11T08:01:55.395Z,100664.66
2023-03-11T08:04:23.442Z,100663.81
2023-03-11T08:06:51.127Z,100676.00
2023-03-11T08:09:18.961Z,100676.00
2023-03-11T08:11:48.753Z,100684.69
2023-03-11T08:14:18.739Z,100681.16
2023-03-11T08:16:46.414Z,100688.16
2023-03-11T08:19:14.128Z,100688.16
2023-03-11T08:21:41.834Z,100690.78
2023-03-11T08:24:11.548Z,100695.97
2023-03-11T08:26:39.284Z,100695.91
2023-03-11T08:29:07.005Z,100702.91
2023-03-11T08:31:36.189Z,100696.78
2023-03-11T08:34:05.704Z,100699.38
2023-03-11T08:36:33.684Z,100697.56
2023-03-11T08:39:01.490Z,100701.94
2023-03-11T08:41:29.248Z,100714.13
2023-03-11T08:43:56.954Z,100710.59
2023-03-11T08:46:25.825Z,100716.69
2023-03-11T08:48:55.178Z,100717.53
2023-03-11T08:51:23.240Z,100717.53
2023-03-11T08:53:51.056Z,100716.63
2023-03-11T08:56:18.850Z,100719.22
2023-03-11T08:58:46.576Z,100720.94
2023-03-11T09:01:14.293Z,100725.31
2023-03-11T09:03:41.952Z,100722.66
2023-03-11T09:06:13.585Z,100723.44
2023-03-11T09:08:41.247Z,100730.38
2023-03-11T09:11:08.991Z,100729.47
2023-03-11T09:13:37.064Z,100732.94
2023-03-11T09:16:05.965Z,100732.94
2023-03-11T09:18:33.689Z,100734.66
2023-03-11T09:21:01.494Z,100733.72
2023-03-11T09:23:30.596Z,100736.28
2023-03-11T09:25:58.302Z,100740.63
2023-03-11T09:28:26.010Z,100746.72
2023-03-11T09:30:53.712Z,100750.16
2023-03-11T09:33:21.452Z,100753.66
2023-03-11T09:35:49.188Z,100757.06
2023-03-11T09:38:16.877Z,100756.13
2023-03-11T09:40:52.645Z,100762.25
2023-03-11T09:43:27.069Z,100757.84
2023-03-11T09:45:56.545Z,100754.31
2023-03-11T09:48:25.814Z,100764.75
2023-03-11T09:50:54.911Z,100762.13
2023-03-11T09:53:27.340Z,100763.00
2023-03-11T09:55:56.686Z,100763.88
2023-03-11T09:58:30.970Z,100764.69
2023-03-11T10:00:58.639Z,100760.25
2023-03-11T10:03:31.791Z,100768.97
2023-03-11T10:06:06.161Z,100769.81
2023-03-11T10:08:35.322Z,100768.88
2023-03-11T10:11:09.162Z,100768.88
2023-03-11T10:13:38.095Z,100764.47
2023-03-11T10:16:10.594Z,100776.66
2023-03-11T10:18:44.500Z,100772.28
2023-03-11T10:21:14.734Z,100765.28
2023-03-11T10:23:51.453Z,100770.53
2023-03-11T10:26:21.411Z,100768.75
2023-03-11T10:28:51.118Z,100768.69
2023-03-11T10:31:22.889Z,100764.34
2023-03-11T10:33:51.991Z,100776.53
2023-03-11T10:36:24.044Z,100773.88
2023-03-11T10:38:52.291Z,100779.09
2023-03-11T10:41:22.914Z,100774.66
2023-03-11T10:43:53.158Z,100768.50
2023-03-11T10:46:22.017Z,100777.19
2023-03-11T10:48:49.693Z,100778.88
2023-03-11T10:51:22.411Z,100770.88
2023-03-11T10:53:51.399Z,100773.41
2023-03-11T10:56:30.560Z,100772.50
2023-03-11T10:58:58.571Z,100768.06
2023-03-11T11:01:26.357Z,100770.63
2023-03-11T11:03:55.497Z,100774.16
2023-03-11T11:06:26.437Z,100765.38
2023-03-11T11:09:16.901Z,100775.81
2023-03-11T11:12:00.921Z,100766.19
2023-03-11T11:14:43.262Z,100768.78
2023-03-11T11:17:18.238Z,100768.78
2023-03-11T11:19:46.004Z,100765.28
2023-03-11T11:22:15.107Z,100769.63
2023-03-11T11:24:45.054Z,100770.47
2023-03-11T11:27:18.497Z,100767.84
2023-03-11T11:29:46.239Z,100768.66
2023-03-11T11:32:23.046Z,100773.91
2023-03-11T11:34:59.505Z,100777.34
2023-03-11T11:37:31.714Z,100778.16
2023-03-11T11:40:11.265Z,100772.00
2023-03-11T11:42:41.119Z,100766.84
2023-03-11T11:45:14.548Z,100763.31
2023-03-11T11:47:45.150Z,100769.47
2023-03-11T11:50:16.030Z,100759.81
2023-03-11T11:52:45.291Z,100761.56
2023-03-11T11:55:19.991Z,100757.06
2023-03-11T11:57:49.101Z,100757.06
2023-03-11T12:00:20.700Z,100759.66
2023-03-11T12:03:00.274Z,100765.69
2023-03-11T12:05:29.722Z,100764.69
2023-03-11T12:08:02.824Z,100753.28
2023-03-11T12:10:30.923Z,100763.75
2023-03-11T12:13:34.012Z,100758.38
2023-03-11T12:16:02.951Z,100764.38
2023-03-11T12:18:35.141Z,100759.09
2023-03-11T12:21:05.009Z,100759.91
2023-03-11T12:23:38.764Z,100753.66
2023-03-11T12:26:13.852Z,100747.72
2023-03-11T12:28:46.038Z,100756.53
2023-03-11T12:31:14.231Z,100748.69
2023-03-11T12:33:42.258Z,100752.16
2023-03-11T12:36:23.543Z,100757.25
2023-03-11T12:38:51.359Z,100755.50
2023-03-11T12:41:33.624Z,100748.53
2023-03-11T12:44:04.445Z,100756.47
2023-03-11T12:47:05.594Z,100755.63
2023-03-11T12:49:33.621Z,100754.63
2023-03-11T12:52:06.730Z,100758.13
2023-03-11T12:54:35.082Z,100760.88
2023-03-11T12:57:03.027Z,100765.31
2023-03-11T12:59:44.320Z,100761.00
2023-03-11T13:02:24.878Z,100762.84
2023-03-11T13:04:56.964Z,100761.16
2023-03-11T13:07:43.328Z,100757.84
2023-03-11T13:10:35.820Z,100764.81
2023-03-11T13:13:03.921Z,100758.56
2023-03-11T13:15:41.774Z,100762.06
2023-03-11T13:18:19.728Z,100762.25
2023-03-11T13:20:50.179Z,100762.13
2023-03-11T13:23:33.367Z,100762.06
2023-03-11T13:26:23.796Z,100764.81
2023-03-11T13:29:17.902Z,100756.06
2023-03-11T13:31:53.857Z,100759.41
2023-03-11T13:34:25.163Z,100761.16
2023-03-11T13:37:00.202Z,100756.81
2023-03-11T13:39:32.740Z,100767.25
2023-03-11T13:42:00.434Z,100757.38
2023-03-11T13:44:29.921Z,100761.78
2023-03-11T13:47:01.732Z,100764.50
2023-03-11T13:49:33.862Z,100767.13
2023-03-11T13:52:01.584Z,100770.75
2023-03-11T13:54:39.325Z,100773.44
2023-03-11T13:57:07.115Z,100763.09
2023-03-11T13:59:35.820Z,100778.97
2023-03-11T14:02:12.973Z,100778.13
2023-03-11T14:04:40.643Z,100779.88
2023-03-11T14:07:13.641Z,100770.31
2023-03-11T14:09:41.396Z,100774.72
2023-03-11T14:12:09.313Z,100773.09
2023-03-11T14:14:44.235Z,100774.88
2023-03-11T14:17:15.131Z,100779.38
2023-03-11T14:19:42.896Z,100777.69
2023-03-11T14:22:10.684Z,100775.06
2023-03-11T14:24:38.555Z,100785.63
2023-03-11T14:27:09.444Z,100784.63
2023-03-11T14:29:37.783Z,100779.47
2023-03-11T14:32:18.913Z,100780.41
2023-03-11T14:34:46.682Z,100789.88
2023-03-11T14:37:27.473Z,100782.78
2023-03-11T14:39:55.149Z,100794.25
2023-03-11T14:42:26.052Z,100791.75
2023-03-11T14:44:57.500Z,100797.97
2023-03-11T14:47:31.926Z,100799.88
2023-03-11T14:49:59.613Z,100797.31
2023-03-11T14:52:33.375Z,100822.81
2023-03-11T14:55:01.086Z,100836.09
2023-03-11T14:57:32.300Z,100845.88
2023-03-11T14:59:59.977Z,100837.28
2023-03-11T15:02:34.679Z,100839.16
2023-03-11T15:05:03.436Z,100843.59
2023-03-11T15:07:32.756Z,100839.28
2023-03-11T15:10:01.120Z,100829.75
2023-03-11T15:12:32.767Z,100821.84
2023-03-11T15:15:00.447Z,100817.38
2023-03-11T15:17:38.428Z,100809.47
2023-03-11T15:20:24.415Z,100803.31
2023-03-11T15:22:58.136Z,100805.91
2023-03-11T15:25:25.856Z,100805.88
2023-03-11T15:27:53.536Z,100806.31
2023-03-11T15:30:22.457Z,100806.38
2023-03-11T15:32:50.402Z,100798.09
2023-03-11T15:35:19.285Z,100800.28
2023-03-11T15:37:48.669Z,100793.66
2023-03-11T15:40:23.428Z,100792.91
2023-03-11T15:43:13.736Z,100783.88
2023-03-11T15:45:41.438Z,100791.28
2023-03-11T15:48:10.025Z,100786.53
2023-03-11T15:50:52.078Z,100787.91
2023-03-11T15:53:21.608Z,100785.75
2023-03-11T15:55:49.303Z,100789.03
2023-03-11T15:58:17.906Z,100788.88
2023-03-11T16:00:47.937Z,100779.97
2023-03-11T16:03:15.772Z,100785.09
2023-03-11T16:05:43.507Z,100793.84
2023-03-11T16:08:11.241Z,100784.94
2023-03-11T16:10:40.392Z,100791.03
2023-03-11T16:13:08.080Z,100790.03
2023-03-11T16:15:37.730Z,100795.25
2023-03-11T16:18:07.408Z,100793.47
2023-03-11T16:20:37.539Z,100796.09
2023-03-11T16:23:05.288Z,100798.88
2023-03-11T16:25:34.387Z,100795.28
2023-03-11T16:28:03.456Z,100797.88
2023-03-11T16:30:32.376Z,100800.53
2023-03-11T16:33:01.601Z,100797.22
2023-03-11T16:35:31.106Z,100805.19
2023-03-11T16:37:58.913Z,100815.00
2023-03-11T16:40:27.598Z,100811.72
2023-03-11T16:42:56.264Z,100814.56
2023-03-11T16:45:25.615Z,100806.94
2023-03-11T16:47:53.280Z,100812.47
2023-03-11T16:50:24.165Z,100815.34
2023-03-11T16:52:51.930Z,100812.22
2023-03-11T16:55:19.746Z,100829.97
2023-03-11T16:57:47.400Z,100819.72
2023-03-11T17:00:15.612Z,100820.75
2023-03-11T17:02:44.674Z,100822.69
2023-03-11T17:05:12.449Z,100829.91
2023-03-11T17:07:40.188Z,100833.72
2023-03-11T17:10:08.269Z,100829.59
2023-03-11T17:12:36.021Z,100834.19
2023-03-11T17:15:04.083Z,100830.81
2023-03-11T17:17:31.762Z,100837.91
2023-03-11T17:20:00.792Z,100835.44
2023-03-11T17:22:28.474Z,100840.81
2023-03-11T17:24:56.287Z,100847.88
2023-03-11T17:27:24.243Z,100842.69
2023-03-11T17:29:51.930Z,100839.28
2023-03-11T17:32:21.422Z,100852.44
2023-03-11T17:34:49.276Z,100852.47
2023-03-11T17:37:18.644Z,100846.44
2023-03-11T17:39:46.309Z,100851.72
2023-03-11T17:42:14.003Z,100854.41
2023-03-11T17:44:51.385Z,100855.34
2023-03-11T17:47:20.554Z,100854.56
2023-03-11T17:49:48.489Z,100859.00
2023-03-11T17:52:16.199Z,100851.16
2023-03-11T17:54:45.247Z,100861.69
2023-03-11T17:57:12.950Z,100855.56
2023-03-11T17:59:40.663Z,100863.47
2023-03-11T18:02:08.717Z,100859.13
2023-03-11T18:04:38.777Z,100863.56
2023-03-11T18:07:06.484Z,100861.81
2023-03-11T18:09:34.169Z,100872.38
2023-03-11T18:12:03.934Z,100869.75
2023-03-11T18:14:31.604Z,100863.69
2023-03-11T18:16:59.287Z,100870.75
2023-03-11T18:19:27.048Z,100863.78
2023-03-11T18:21:54.716Z,100872.53
2023-03-11T18:24:22.408Z,100867.28
2023-03-11T18:26:50.099Z,100863.81
2023-03-11T18:29:19.155Z,100868.16
2023-03-11T18:31:46.867Z,100871.72
2023-03-11T18:34:14.878Z,100875.28
2023-03-11T18:36:42.749Z,100869.16
2023-03-11T18:39:12.508Z,100877.94
2023-03-11T18:41:40.276Z,100881.47
2023-03-11T18:44:08.046Z,100886.72
2023-03-11T18:46:37.346Z,100879.72
2023-03-11T18:49:05.498Z,100885.84
2023-03-11T18:51:33.333Z,100880.59
2023-03-11T18:54:01.246Z,100883.22
2023-03-11T18:56:30.878Z,100882.34
2023-03-11T18:58:58.702Z,100886.78
2023-03-11T19:01:27.205Z,100904.25
2023-03-11T19:03:57.220Z,100899.91
2023-03-11T19:06:25.156Z,100914.75
2023-03-11T19:08:52.888Z,100926.19
2023-03-11T19:11:21.715Z,100924.50
2023-03-11T19:13:49.419Z,100915.78
2023-03-11T19:16:18.162Z,100909.66
2023-03-11T19:18:45.935Z,100917.50
2023-03-11T19:21:15.724Z,100914.88
2023-03-11T19:23:43.424Z,100909.63
2023-03-11T19:26:11.097Z,100909.63
2023-03-11T19:28:38.805Z,100916.63
2023-03-11T19:31:06.625Z,100911.38
2023-03-11T19:33:34.347Z,100912.25
2023-03-11T19:36:02.905Z,100917.50
2023-03-11T19:38:32.003Z,100913.16
2023-03-11T19:41:03.864Z,100921.91
2023-03-11T19:43:31.680Z,100934.16
2023-03-11T19:45:59.982Z,100936.78
2023-03-11T19:48:27.708Z,100933.28
2023-03-11T19:50:55.443Z,100931.56
2023-03-11T19:53:23.372Z,100928.94
2023-03-11T19:55:53.120Z,100933.28
2023-03-11T19:58:20.864Z,100924.59
2023-03-11T20:00:48.578Z,100931.56
2023-03-11T20:03:16.398Z,100931.59
2023-03-11T20:05:45.029Z,100938.56
2023-03-11T20:08:13.977Z,100943.84
2023-03-11T20:10:42.583Z,100939.50
2023-03-11T20:13:11.616Z,100942.16
2023-03-11T20:15:39.368Z,100940.47
2023-03-11T20:18:07.255Z,100935.22
2023-03-11T20:20:35.264Z,100937.94
2023-03-11T20:23:02.951Z,100948.50
2023-03-11T20:25:32.264Z,100955.56
2023-03-11T20:28:00.174Z,100952.09
2023-03-11T20:30:29.353Z,100946.88
2023-03-11T20:32:57.327Z,100945.09
2023-03-11T20:35:25.124Z,100951.19
2023-03-11T20:37:52.956Z,100946.03
2023-03-11T20:40:20.940Z,100960.88
2023-03-11T20:42:48.711Z,100957.44
2023-03-11T20:45:17.549Z,100960.06
2023-03-11T20:47:46.828Z,100969.63
2023-03-11T20:50:14.555Z,100976.63
2023-03-11T20:52:42.285Z,100975.78
2023-03-11T20:55:11.190Z,100978.41
2023-03-11T20:57:39.153Z,100980.13
2023-03-11T21:00:11.343Z,100985.38
2023-03-11T21:02:39.664Z,100984.50
2023-03-11T21:05:09.825Z,100988.91
2023-03-11T21:07:37.593Z,100990.66
2023-03-11T21:10:06.651Z,100995.91
2023-03-11T21:12:34.366Z,101005.50
2023-03-11T21:15:02.174Z,101003.78
2023-03-11T21:17:29.985Z,101000.28
2023-03-11T21:19:58.141Z,101001.16
2023-03-11T21:22:27.275Z,100996.81
2023-03-11T21:24:55.234Z,101005.50
2023-03-11T21:27:26.414Z,100993.28
2023-03-11T21:29:54.409Z,101005.53
2023-03-11T21:32:22.401Z,101006.41
2023-03-11T21:34:50.418Z,100999.41
2023-03-11T21:37:18.316Z,101002.03
2023-03-11T21:39:47.448Z,101005.53
2023-03-11T21:42:15.643Z,101008.19
2023-03-11T21:44:43.409Z,101012.59
2023-03-11T21:47:11.212Z,101006.53
2023-03-11T21:49:39.460Z,101008.25
2023-03-11T21:52:07.300Z,101015.22
2023-03-11T21:54:35.085Z,101009.16
2023-03-11T21:57:04.244Z,101012.63
2023-03-11T21:59:32.194Z,101010.91
2023-03-11T22:02:02.979Z,101016.16
2023-03-11T22:04:31.447Z,101010.06
2023-03-11T22:06:59.440Z,101014.47
2023-03-11T22:09:27.363Z,101016.25
2023-03-11T22:11:56.112Z,101012.75
2023-03-11T22:14:25.407Z,101011.03
2023-03-11T22:16:53.258Z,101010.16
2023-03-11T22:19:21.093Z,100994.41
2023-03-11T22:21:49.282Z,100993.53
2023-03-11T22:24:17.088Z,100995.31
2023-03-11T22:26:44.808Z,100994.41
2023-03-11T22:29:13.776Z,100991.81
2023-03-11T22:31:42.966Z,101003.19
2023-03-11T22:34:10.690Z,100997.94
2023-03-11T22:36:38.396Z,101004.03
2023-03-11T22:39:06.110Z,101008.44
2023-03-11T22:41:33.802Z,101004.94
2023-03-11T22:44:01.544Z,101013.66
2023-03-11T22:46:29.800Z,101006.72
2023-03-11T22:48:58.933Z,101004.13
2023-03-11T22:51:26.655Z,101007.56
2023-03-11T22:53:54.368Z,101012.88
2023-03-11T22:56:22.079Z,101006.75
2023-03-11T22:58:49.781Z,101005.88
2023-03-11T23:01:17.501Z,101006.72
2023-03-11T23:03:45.225Z,101026.81
2023-03-11T23:06:15.452Z,101019.84
2023-03-11T23:08:43.198Z,101023.31
2023-03-11T23:11:12.425Z,101032.03
2023-03-11T23:13:40.416Z,101030.34
2023-03-11T23:16:09.310Z,101020.72
2023-03-11T23:18:37.100Z,101022.47
2023-03-11T23:21:05.288Z,101040.81
2023-03-11T23:23:34.326Z,101036.41
2023-03-11T23:26:02.005Z,101033.84
2023-03-11T23:28:29.676Z,101033.78
2023-03-11T23:30:57.398Z,101032.06
2023-03-11T23:33:25.085Z,101040.84
2023-03-11T23:35:52.808Z,101039.94
2023-03-11T23:38:20.590Z,101037.34
2023-03-11T23:40:49.664Z,101036.41
2023-03-11T23:43:17.374Z,101042.56
2023-03-11T23:45:45.033Z,101039.03
2023-03-11T23:48:12.719Z,101051.31
2023-03-11T23:50:40.408Z,101051.28
2023-03-11T23:53:08.080Z,101051.28
2023-03-11T23:55:37.754Z,101046.06
2023-03-11T23:58:06.784Z,101058.31
